Time;durP1;ratioP1;P1;durP2;ratioP2;P2;SDS_P1;SDS_P2;PMS_P1;PMS_P2;Temp;Humidity;BMP_temperature;BMP_pressure;BME280_temperature;BME280_humidity;BME280_pressure;Samples;Min_cycle;Max_cycle;Signal;HPM_P1;HPM_P2
2021/12/18 00:01:27;;;;;;;8.88;2.83;;;;;;;2.78;97.76;148365.66;1740270;80;21170;-60
2021/12/18 00:03:54;;;;;;;4.58;1.98;;;;;;;2.78;97.89;148365.66;1742208;80;21781;-59
2021/12/18 00:06:21;;;;;;;8.70;2.58;;;;;;;2.78;97.80;148365.66;1729955;81;21559;-59
2021/12/18 00:08:48;;;;;;;7.62;2.37;;;;;;;2.80;97.99;148369.50;1741504;80;21072;-59
2021/12/18 00:11:17;;;;;;;8.63;2.60;;;;;;;2.80;97.90;148370.81;1731540;80;21696;-61
2021/12/18 00:13:43;;;;;;;6.25;2.30;;;;;;;2.78;97.78;148364.34;1741349;80;21095;-62
2021/12/18 00:16:10;;;;;;;11.33;2.42;;;;;;;2.76;97.69;148360.45;1700566;81;21171;-61
2021/12/18 00:18:36;;;;;;;5.55;2.08;;;;;;;2.76;97.83;148360.45;1676912;83;21061;-61
2021/12/18 00:21:04;;;;;;;14.70;2.27;;;;;;;2.77;98.00;148361.77;1694710;83;21074;-62
2021/12/18 00:23:31;;;;;;;7.33;2.42;;;;;;;2.77;97.98;148363.09;1678855;82;21102;-59
2021/12/18 00:25:59;;;;;;;7.97;3.08;;;;;;;2.77;97.91;148363.09;1710923;82;20925;-59
2021/12/18 00:28:25;;;;;;;10.20;3.33;;;;;;;2.76;98.04;148360.45;1679921;83;21079;-59
2021/12/18 00:30:52;;;;;;;12.70;4.35;;;;;;;2.76;98.04;148359.19;1743304;80;21151;-59
2021/12/18 00:33:19;;;;;;;9.23;4.53;;;;;;;2.76;98.04;148360.45;1690633;81;21113;-61
2021/12/18 00:35:46;;;;;;;7.37;3.10;;;;;;;2.77;98.10;148363.09;1699060;82;21061;-61
2021/12/18 00:38:13;;;;;;;4.60;2.12;;;;;;;2.78;98.03;148365.66;1672095;83;21048;-62
2021/12/18 00:40:46;;;;;;;7.80;2.52;;;;;;;2.80;97.95;148369.50;1685187;83;21176;-62
2021/12/18 00:43:25;;;;;;;17.60;2.50;;;;;;;2.77;97.83;148363.09;1704150;83;21601;-60
2021/12/18 00:45:50;;;;;;;5.97;2.10;;;;;;;2.76;97.90;148360.45;1750459;80;20939;-59
2021/12/18 00:48:17;;;;;;;9.08;2.37;;;;;;;2.75;97.89;148357.88;1696566;81;21052;-62
2021/12/18 00:50:44;;;;;;;6.42;2.12;;;;;;;2.74;98.01;148355.31;1698984;81;21084;-62
2021/12/18 00:53:11;;;;;;;12.63;2.98;;;;;;;2.75;98.10;148357.88;1669425;83;21131;-59
2021/12/18 00:55:39;;;;;;;7.80;2.02;;;;;;;2.75;98.19;148357.88;1738552;80;21127;-59
2021/12/18 00:58:06;;;;;;;10.85;2.67;;;;;;;2.75;98.24;148356.63;1740053;80;21036;-62
2021/12/18 01:00:34;;;;;;;9.55;3.22;;;;;;;2.74;98.24;148355.31;1736778;80;21132;-64
2021/12/18 01:03:02;;;;;;;5.90;2.42;;;;;;;2.73;98.29;148352.72;1738958;80;21530;-62
2021/12/18 01:05:31;;;;;;;9.08;2.50;;;;;;;2.71;98.33;148347.56;1743575;80;21092;-58
2021/12/18 01:07:59;;;;;;;5.08;2.45;;;;;;;2.73;98.52;148352.72;1733025;80;20973;-61
2021/12/18 01:12:58;;;;;;;5.30;2.08;;;;;;;2.69;98.61;148343.73;1735554;80;21056;-61
2021/12/18 01:23:23;;;;;;;7.70;2.37;;;;;;;2.71;98.76;148347.56;1696186;82;21056;-59
2021/12/18 01:25:51;;;;;;;9.08;2.55;;;;;;;2.72;98.76;148350.16;1680477;82;21084;-59
2021/12/18 01:28:17;;;;;;;6.17;2.40;;;;;;;2.70;98.71;148345.00;1689172;82;21033;-60
2021/12/18 01:30:44;;;;;;;8.38;2.58;;;;;;;2.70;98.67;148346.31;1716849;81;21088;-60
2021/12/18 01:33:11;;;;;;;7.35;2.87;;;;;;;2.69;98.72;148343.73;1704325;81;21096;-60
2021/12/18 01:35:38;;;;;;;4.03;2.33;;;;;;;2.67;98.62;148338.58;1713491;81;21118;-60
2021/12/18 01:38:04;;;;;;;6.15;1.95;;;;;;;2.67;98.73;148337.27;1703517;81;21958;-58
2021/12/18 01:40:33;;;;;;;5.25;2.12;;;;;;;2.67;98.82;148338.58;1707909;81;21057;-59
2021/12/18 01:43:54;;;;;;;6.83;2.30;;;;;;;2.66;98.80;148336.00;1714515;81;21124;-59
2021/12/18 01:45:44;;;;;;;4.70;2.25;;;;;;;2.64;98.71;148330.80;1669252;83;21470;-59
2021/12/18 01:53:34;;;;;;;9.35;2.35;;;;;;;2.64;98.99;148329.53;1678925;83;21150;-61
2021/12/18 01:56:01;;;;;;;9.30;2.40;;;;;;;2.62;99.09;148324.38;1732427;81;21082;-61
2021/12/18 01:58:28;;;;;;;11.18;2.40;;;;;;;2.60;99.18;148319.22;1666591;83;21036;-58
2021/12/18 02:00:56;;;;;;;7.83;2.22;;;;;;;2.59;99.37;148317.91;1676926;83;21586;-59
2021/12/18 02:03:23;;;;;;;6.28;2.33;;;;;;;2.57;99.36;148312.75;1716952;82;21139;-61
2021/12/18 02:05:51;;;;;;;5.62;2.40;;;;;;;2.56;99.51;148311.48;1724889;81;21662;-61
2021/12/18 02:08:19;;;;;;;11.12;2.62;;;;;;;2.57;99.68;148314.06;1712740;82;21718;-60
2021/12/18 02:10:52;;;;;;;8.25;2.27;;;;;;;2.54;99.80;148306.34;1714199;82;21130;-61
2021/12/18 02:21:22;;;;;;;11.83;3.02;;;;;;;2.47;100.00;148288.25;1688646;83;21156;-60
2021/12/18 02:23:49;;;;;;;9.08;3.35;;;;;;;2.45;100.00;148283.09;1689513;83;21926;-62
2021/12/18 02:26:18;;;;;;;9.60;2.72;;;;;;;2.45;100.00;148283.09;1717775;82;21065;-62
2021/12/18 02:28:47;;;;;;;10.18;2.58;;;;;;;2.45;100.00;148283.09;1702585;81;21479;-58
2021/12/18 02:31:14;;;;;;;6.35;2.77;;;;;;;2.46;100.00;148285.67;1708263;81;21299;-59
2021/12/18 02:33:41;;;;;;;9.35;2.60;;;;;;;2.48;100.00;148290.83;1681878;82;21625;-59
2021/12/18 02:36:10;;;;;;;12.20;3.35;;;;;;;2.47;100.00;148288.25;1713507;81;21084;-59
2021/12/18 02:41:33;;;;;;;15.40;4.03;;;;;;;2.48;100.00;148290.83;1675233;83;21407;-61
2021/12/18 02:43:59;;;;;;;8.45;3.22;;;;;;;2.48;100.00;148290.83;1660883;82;21526;-60
2021/12/18 02:46:26;;;;;;;13.32;3.45;;;;;;;2.50;100.00;148295.97;1695000;82;21103;-58
2021/12/18 02:51:36;;;;;;;19.52;3.67;;;;;;;2.53;100.00;148302.44;1667681;83;21236;-61
2021/12/18 02:54:03;;;;;;;11.15;3.20;;;;;;;2.56;100.00;148311.48;1680498;83;21183;-61
2021/12/18 02:56:30;;;;;;;12.23;2.72;;;;;;;2.57;100.00;148314.06;1745800;80;21040;-60
2021/12/18 02:59:04;;;;;;;9.43;2.77;;;;;;;2.57;100.00;148314.06;1717578;81;21445;-58
2021/12/18 03:01:28;;;;;;;16.02;3.27;;;;;;;2.60;100.00;148319.22;1698314;82;21093;-59
2021/12/18 03:03:57;;;;;;;5.75;3.08;;;;;;;2.60;100.00;148320.48;1714651;81;21456;-59
2021/12/18 03:06:38;;;;;;;7.25;2.90;;;;;;;2.63;100.00;148326.95;1702464;82;21105;-65
2021/12/18 03:25:25;;;;;;;7.03;3.30;;;;;;;2.67;98.44;148337.27;1742401;80;21753;-61
2021/12/18 03:27:51;;;;;;;5.20;2.72;;;;;;;2.63;98.52;148328.22;1734987;79;21591;-61
2021/12/18 03:30:19;;;;;;;8.23;3.20;;;;;;;2.64;98.44;148330.80;1689077;83;21477;-59
2021/12/18 03:32:46;;;;;;;6.03;2.83;;;;;;;2.63;98.54;148326.95;1716475;82;21472;-61
2021/12/18 03:35:14;;;;;;;5.58;2.65;;;;;;;2.61;98.60;148321.80;1723234;81;21053;-60
2021/12/18 03:37:41;;;;;;;9.83;3.10;;;;;;;2.61;98.37;148321.80;1709088;82;21564;-60
2021/12/18 03:40:14;;;;;;;5.30;2.90;;;;;;;2.62;98.33;148324.38;1730852;81;21068;-59
2021/12/18 03:42:41;;;;;;;8.18;3.10;;;;;;;2.61;98.31;148321.80;1736044;80;21036;-61
2021/12/18 03:45:09;;;;;;;5.30;3.27;;;;;;;2.61;98.25;148321.80;1706029;81;21095;-61
2021/12/18 03:47:38;;;;;;;5.35;3.00;;;;;;;2.61;98.47;148321.80;1733715;80;35582;-61
2021/12/18 03:50:06;;;;;;;7.85;3.10;;;;;;;2.60;98.39;148319.22;1735292;80;21526;-59
2021/12/18 03:52:33;;;;;;;6.62;3.10;;;;;;;2.58;98.33;148316.64;1735750;80;21113;-60
2021/12/18 03:55:03;;;;;;;5.40;3.08;;;;;;;2.60;98.33;148319.22;1737087;80;21089;-60
2021/12/18 03:57:30;;;;;;;7.85;3.22;;;;;;;2.57;98.37;148314.06;1690750;81;21192;-60
2021/12/18 03:59:56;;;;;;;9.60;3.45;;;;;;;2.56;98.41;148311.48;1704980;82;21638;-60
2021/12/18 04:02:23;;;;;;;9.20;3.42;;;;;;;2.55;98.57;148308.91;1689791;82;21149;-62
2021/12/18 04:04:50;;;;;;;9.70;3.45;;;;;;;2.54;98.54;148305.02;1675163;83;21072;-61
2021/12/18 04:07:18;;;;;;;6.85;3.37;;;;;;;2.54;98.58;148306.34;1731130;79;21033;-62
2021/12/18 04:09:48;;;;;;;5.30;2.95;;;;;;;2.54;98.53;148306.34;1719822;82;21075;-60
2021/12/18 04:12:14;;;;;;;6.30;3.02;;;;;;;2.53;98.42;148302.44;1675927;83;21090;-62
2021/12/18 04:14:41;;;;;;;7.03;2.87;;;;;;;2.53;98.61;148303.70;1670267;83;22000;-60
2021/12/18 04:17:08;;;;;;;10.70;3.58;;;;;;;2.51;98.62;148298.56;1676863;83;21048;-60
2021/12/18 04:19:36;;;;;;;6.67;3.20;;;;;;;2.51;98.50;148298.56;1745696;80;21119;-61
2021/12/18 04:22:03;;;;;;;7.12;3.50;;;;;;;2.51;98.59;148298.56;1726751;80;21152;-62
2021/12/18 04:24:30;;;;;;;5.95;2.75;;;;;;;2.50;98.48;148294.72;1725757;80;21043;-61
2021/12/18 04:26:57;;;;;;;6.33;2.72;;;;;;;2.50;98.50;148294.72;1742826;80;21525;-62
2021/12/18 04:29:24;;;;;;;5.62;3.22;;;;;;;2.50;98.28;148295.97;1744132;80;21245;-61
2021/12/18 04:31:51;;;;;;;9.18;3.30;;;;;;;2.51;98.15;148297.30;1746048;80;21027;-62
2021/12/18 04:34:18;;;;;;;7.40;3.15;;;;;;;2.49;98.22;148292.14;1719162;80;21094;-62
2021/12/18 04:36:44;;;;;;;6.08;3.12;;;;;;;2.50;98.38;148295.97;1713437;82;21089;-61
2021/12/18 04:39:11;;;;;;;6.72;3.10;;;;;;;2.49;98.42;148293.41;1679491;83;21095;-61
2021/12/18 04:41:48;;;;;;;4.90;3.10;;;;;;;2.49;98.51;148293.41;1696920;83;21678;-61
2021/12/18 04:44:07;;;;;;;6.00;3.25;;;;;;;2.48;98.43;148290.83;1712201;81;21503;-61
2021/12/18 04:46:34;;;;;;;6.15;3.08;;;;;;;2.46;98.43;148284.41;1693042;82;21960;-62
2021/12/18 04:49:01;;;;;;;8.80;3.35;;;;;;;2.46;98.51;148285.67;1683768;82;20973;-59
2021/12/18 04:51:27;;;;;;;5.17;3.02;;;;;;;2.45;98.57;148281.83;1733518;81;21139;-61
2021/12/18 04:53:54;;;;;;;8.15;3.50;;;;;;;2.44;98.55;148280.52;1741857;80;20956;-61
2021/12/18 04:56:21;;;;;;;11.53;3.22;;;;;;;2.43;98.46;148279.25;1737332;80;21565;-59
2021/12/18 04:58:48;;;;;;;11.70;3.62;;;;;;;2.45;98.21;148283.09;1702750;81;21648;-60
2021/12/18 05:01:15;;;;;;;7.50;3.45;;;;;;;2.44;97.88;148280.52;1713098;82;21090;-61
2021/12/18 05:03:43;;;;;;;9.78;3.87;;;;;;;2.41;98.06;148272.78;1709622;82;21528;-59
2021/12/18 05:06:10;;;;;;;6.97;3.50;;;;;;;2.41;98.31;148272.78;1700240;81;21028;-59
2021/12/18 05:08:37;;;;;;;6.30;3.20;;;;;;;2.42;98.17;148275.36;1731311;80;21549;-59
2021/12/18 05:11:03;;;;;;;8.53;3.75;;;;;;;2.40;97.82;148270.20;1734866;80;21187;-59
2021/12/18 05:13:30;;;;;;;7.22;3.02;;;;;;;2.41;97.95;148272.78;1744492;80;21656;-60
2021/12/18 05:15:57;;;;;;;7.60;3.90;;;;;;;2.41;98.07;148272.78;1757091;80;21537;-59
2021/12/18 05:18:24;;;;;;;14.18;4.58;;;;;;;2.41;98.19;148274.05;1696968;82;21072;-60
2021/12/18 05:20:50;;;;;;;8.48;3.27;;;;;;;2.43;98.28;148277.94;1748439;80;21514;-59
2021/12/18 05:23:17;;;;;;;8.05;3.90;;;;;;;2.41;97.61;148274.05;1749616;80;21068;-59
2021/12/18 05:25:44;;;;;;;8.00;4.05;;;;;;;2.41;97.15;148272.78;1686470;83;21776;-59
2021/12/18 05:28:11;;;;;;;10.32;3.47;;;;;;;2.40;97.26;148271.47;1719841;81;21140;-60
2021/12/18 05:30:38;;;;;;;10.38;3.37;;;;;;;2.40;97.23;148271.47;1734303;80;21151;-61
2021/12/18 05:33:06;;;;;;;5.50;3.47;;;;;;;2.40;96.95;148270.20;1736898;80;21764;-61
2021/12/18 05:35:34;;;;;;;13.00;3.75;;;;;;;2.40;97.04;148270.20;1699464;80;21542;-61
2021/12/18 05:38:06;;;;;;;7.87;3.55;;;;;;;2.41;96.89;148272.78;1677552;83;21646;-61
2021/12/18 05:40:35;;;;;;;9.88;3.80;;;;;;;2.41;96.93;148272.78;1679988;83;22961;-62
2021/12/18 05:43:02;;;;;;;9.98;4.15;;;;;;;2.41;97.12;148272.78;1742066;80;21569;-60
2021/12/18 05:45:29;;;;;;;7.65;3.55;;;;;;;2.39;96.88;148267.63;1723771;81;21105;-59
2021/12/18 05:47:55;;;;;;;8.00;3.40;;;;;;;2.38;96.86;148265.06;1716055;80;21052;-59
2021/12/18 05:50:24;;;;;;;5.95;3.87;;;;;;;2.39;97.13;148267.63;1699154;81;21143;-62
2021/12/18 05:52:51;;;;;;;7.53;3.10;;;;;;;2.39;96.94;148268.89;1710361;81;21991;-61
2021/12/18 05:55:20;;;;;;;6.25;2.77;;;;;;;2.41;96.64;148272.78;1735481;80;20976;-60
2021/12/18 05:57:47;;;;;;;8.60;3.30;;;;;;;2.40;96.40;148270.20;1709010;82;21116;-60
2021/12/18 06:00:14;;;;;;;6.10;3.98;;;;;;;2.40;96.26;148271.47;1733166;80;21048;-61
2021/12/18 06:02:41;;;;;;;7.58;3.85;;;;;;;2.42;95.82;148275.36;1740163;80;21429;-61
2021/12/18 06:05:09;;;;;;;7.55;4.10;;;;;;;2.42;95.84;148275.36;1737588;80;21142;-61
2021/12/18 06:07:54;;;;;;;6.65;3.72;;;;;;;2.41;95.75;148272.78;1734462;80;21046;-60
2021/12/18 06:10:09;;;;;;;5.60;3.65;;;;;;;2.41;95.18;148272.78;1742239;80;21115;-59
2021/12/18 06:12:36;;;;;;;6.97;3.60;;;;;;;2.40;95.40;148271.47;1733712;80;21001;-62
2021/12/18 06:15:04;;;;;;;5.22;3.20;;;;;;;2.40;95.15;148270.20;1743386;79;21075;-61
2021/12/18 06:17:32;;;;;;;8.20;3.87;;;;;;;2.40;95.14;148270.20;1749520;80;21407;-61
2021/12/18 06:19:59;;;;;;;7.15;3.55;;;;;;;2.41;95.21;148274.05;1732745;79;21095;-60
2021/12/18 06:22:26;;;;;;;7.62;3.67;;;;;;;2.41;94.38;148274.05;1724576;80;21032;-61
2021/12/18 06:24:53;;;;;;;6.72;4.03;;;;;;;2.43;94.53;148279.25;1732406;80;21081;-60
2021/12/18 06:27:20;;;;;;;6.97;3.60;;;;;;;2.46;94.26;148285.67;1726988;80;21032;-62
2021/12/18 06:29:47;;;;;;;5.03;2.90;;;;;;;2.48;94.27;148289.56;1738033;80;21803;-61
2021/12/18 06:32:15;;;;;;;8.33;3.75;;;;;;;2.49;94.52;148292.14;1739246;80;21553;-61
2021/12/18 06:34:41;;;;;;;11.03;4.05;;;;;;;2.50;93.61;148294.72;1722148;80;21116;-62
2021/12/18 06:37:09;;;;;;;11.08;3.30;;;;;;;2.51;93.44;148297.30;1722278;81;21027;-61
2021/12/18 06:39:36;;;;;;;12.80;3.70;;;;;;;2.52;92.90;148301.13;1661535;84;21150;-63
2021/12/18 06:42:04;;;;;;;10.88;3.50;;;;;;;2.54;92.04;148306.34;1705116;81;21144;-61
2021/12/18 06:44:31;;;;;;;6.42;3.20;;;;;;;2.55;91.11;148308.91;1743366;80;21139;-59
2021/12/18 06:46:58;;;;;;;12.05;3.75;;;;;;;2.55;90.29;148308.91;1750555;80;21158;-61
2021/12/18 06:49:24;;;;;;;7.95;2.87;;;;;;;2.56;89.60;148311.48;1692475;82;21059;-61
2021/12/18 06:51:51;;;;;;;7.45;2.90;;;;;;;2.57;89.32;148312.75;1670472;83;21118;-62
2021/12/18 06:54:18;;;;;;;14.18;3.98;;;;;;;2.55;89.07;148308.91;1668516;82;21146;-60
2021/12/18 06:56:45;;;;;;;5.25;2.98;;;;;;;2.57;89.02;148314.06;1663872;83;21113;-61
2021/12/18 06:59:12;;;;;;;15.93;3.87;;;;;;;2.57;88.84;148314.06;1642564;85;21129;-60
2021/12/18 07:01:38;;;;;;;15.48;3.90;;;;;;;2.60;89.10;148319.22;1669452;83;21077;-59
2021/12/18 07:04:05;;;;;;;16.10;4.70;;;;;;;2.61;89.54;148323.06;1678350;83;21058;-62
2021/12/18 07:06:32;;;;;;;16.70;3.37;;;;;;;2.59;89.82;148317.91;1666343;83;22193;-61
2021/12/18 07:08:59;;;;;;;11.75;3.47;;;;;;;2.55;89.78;148307.59;1677981;83;21051;-61
2021/12/18 07:11:25;;;;;;;12.33;4.12;;;;;;;2.48;89.78;148290.83;1672371;83;21716;-62
2021/12/18 07:13:52;;;;;;;16.00;4.25;;;;;;;2.43;90.06;148277.94;1666494;84;21081;-62
2021/12/18 07:16:19;;;;;;;6.87;3.10;;;;;;;2.39;90.25;148267.63;1671487;83;21195;-60
2021/12/18 07:18:46;;;;;;;6.25;2.50;;;;;;;2.34;90.19;148254.75;1672251;83;21094;-60
2021/12/18 07:21:13;;;;;;;7.08;2.40;;;;;;;2.28;89.71;148240.56;1674929;83;21530;-60
2021/12/18 07:23:41;;;;;;;8.95;3.17;;;;;;;2.26;89.11;148236.66;1674187;83;21140;-59
2021/12/18 07:26:08;;;;;;;8.03;2.55;;;;;;;2.26;88.90;148235.41;1670533;83;21172;-59
2021/12/18 07:28:35;;;;;;;4.50;2.30;;;;;;;2.26;88.86;148236.66;1669828;84;21514;-60
2021/12/18 07:31:02;;;;;;;8.75;2.90;;;;;;;2.31;88.60;148246.97;1663881;84;21140;-60
2021/12/18 07:33:28;;;;;;;6.28;3.25;;;;;;;2.34;88.11;148256.02;1661138;83;21488;-60
2021/12/18 07:35:55;;;;;;;7.83;3.35;;;;;;;2.38;88.34;148265.06;1663978;84;21052;-59
2021/12/18 07:38:22;;;;;;;9.25;3.58;;;;;;;2.42;88.73;148275.36;1662542;83;21093;-59
2021/12/18 07:40:50;;;;;;;8.85;2.92;;;;;;;2.41;88.08;148272.78;1667240;84;21260;-59
2021/12/18 07:43:18;;;;;;;4.85;2.40;;;;;;;2.46;88.62;148285.67;1686589;84;21161;-63
2021/12/18 07:45:45;;;;;;;5.50;2.60;;;;;;;2.49;86.30;148292.14;1677628;84;21542;-62
2021/12/18 07:48:12;;;;;;;5.40;2.90;;;;;;;2.54;86.29;148306.34;1682319;83;21153;-62
2021/12/18 07:50:39;;;;;;;6.92;2.85;;;;;;;2.61;86.42;148323.06;1671223;83;21063;-62
2021/12/18 07:53:06;;;;;;;9.85;4.03;;;;;;;2.71;86.39;148347.56;1662236;83;21586;-61
2021/12/18 07:55:32;;;;;;;17.55;4.87;;;;;;;2.82;85.81;148375.97;1670612;83;21728;-61
2021/12/18 07:57:59;;;;;;;7.55;3.22;;;;;;;2.94;84.78;148404.33;1673129;83;21499;-62
2021/12/18 08:00:25;;;;;;;10.43;3.83;;;;;;;3.06;84.04;148435.31;1669363;84;21491;-62
2021/12/18 08:02:53;;;;;;;5.67;2.55;;;;;;;3.17;83.49;148461.09;1678884;82;21090;-59
2021/12/18 08:05:19;;;;;;;6.03;2.77;;;;;;;3.24;81.57;148479.19;1671594;83;21730;-58
2021/12/18 08:07:46;;;;;;;8.85;3.10;;;;;;;3.27;79.99;148486.94;1673500;84;21143;-60
2021/12/18 08:10:13;;;;;;;8.85;3.20;;;;;;;3.29;80.41;148492.09;1666861;83;21851;-60
2021/12/18 08:12:40;;;;;;;6.75;2.95;;;;;;;3.29;80.99;148493.34;1674305;83;21101;-62
2021/12/18 08:15:08;;;;;;;8.20;2.62;;;;;;;3.29;80.68;148492.09;1670112;83;21124;-62
2021/12/18 08:17:35;;;;;;;4.37;1.80;;;;;;;3.27;80.73;148486.94;1677477;83;21149;-62
2021/12/18 08:20:07;;;;;;;8.43;2.00;;;;;;;3.22;80.36;148474.03;1722167;81;21168;-61
2021/12/18 08:22:34;;;;;;;10.48;2.55;;;;;;;3.12;80.90;148450.78;1717988;80;21032;-61
2021/12/18 08:25:01;;;;;;;8.20;2.42;;;;;;;3.08;81.42;148440.47;1736938;81;21086;-63
2021/12/18 08:27:30;;;;;;;9.15;2.60;;;;;;;3.06;81.42;148434.00;1702930;81;20996;-62
2021/12/18 08:29:56;;;;;;;4.30;2.20;;;;;;;3.06;81.79;148434.00;1720115;81;21149;-60
2021/12/18 08:32:24;;;;;;;7.72;2.98;;;;;;;3.05;81.85;148432.73;1709090;82;21130;-59
2021/12/18 08:34:51;;;;;;;7.08;2.87;;;;;;;3.01;82.32;148423.69;1708134;81;22061;-62
2021/12/18 08:37:20;;;;;;;7.87;2.70;;;;;;;3.01;82.77;148423.69;1719241;82;21540;-61
2021/12/18 08:39:48;;;;;;;5.70;2.50;;;;;;;3.04;83.00;148428.84;1702346;82;21051;-60
2021/12/18 08:42:15;;;;;;;9.65;3.30;;;;;;;3.02;83.09;148425.00;1738308;80;21128;-63
2021/12/18 08:44:43;;;;;;;11.43;2.30;;;;;;;3.01;83.78;148422.42;1704390;82;21871;-62
2021/12/18 08:47:10;;;;;;;16.17;4.12;;;;;;;3.00;83.52;148421.11;1669072;83;21092;-61
2021/12/18 08:49:38;;;;;;;10.03;2.85;;;;;;;3.02;83.66;148425.00;1665902;83;22255;-60
2021/12/18 08:52:06;;;;;;;10.25;2.70;;;;;;;3.06;83.62;148435.31;1661527;83;21101;-62
2021/12/18 08:54:33;;;;;;;7.30;3.00;;;;;;;3.07;83.48;148437.89;1681660;83;21773;-61
2021/12/18 08:57:01;;;;;;;10.43;2.30;;;;;;;3.07;83.69;148437.89;1663763;83;21216;-62
2021/12/18 08:59:28;;;;;;;11.10;3.10;;;;;;;3.09;83.66;148443.05;1665796;83;21682;-59
2021/12/18 09:01:55;;;;;;;7.97;2.98;;;;;;;3.11;83.73;148448.20;1652139;83;21170;-62
2021/12/18 09:04:21;;;;;;;14.55;3.12;;;;;;;3.14;83.98;148455.94;1663569;83;21547;-61
2021/12/18 09:06:48;;;;;;;10.38;3.20;;;;;;;3.20;84.01;148470.14;1705045;81;21142;-62
2021/12/18 09:09:15;;;;;;;11.88;3.72;;;;;;;3.27;83.41;148486.94;1717522;80;21894;-61
2021/12/18 09:11:42;;;;;;;7.03;2.80;;;;;;;3.29;83.09;148493.34;1695886;82;21385;-61
2021/12/18 09:14:09;;;;;;;5.20;2.20;;;;;;;3.29;81.72;148492.09;1714347;82;21510;-61
2021/12/18 09:16:36;;;;;;;9.70;2.35;;;;;;;3.28;81.85;148490.78;1719585;81;21081;-62
2021/12/18 09:19:03;;;;;;;11.75;3.37;;;;;;;3.29;82.13;148492.09;1709455;81;21502;-60
2021/12/18 09:21:31;;;;;;;13.78;2.60;;;;;;;3.32;82.26;148498.56;1707610;81;21138;-60
2021/12/18 09:23:59;;;;;;;6.47;2.47;;;;;;;3.36;81.66;148510.14;1679340;83;21065;-60
2021/12/18 09:26:26;;;;;;;12.30;2.47;;;;;;;3.35;81.27;148506.30;1682595;82;21085;-61
2021/12/18 09:28:52;;;;;;;5.55;2.20;;;;;;;3.37;81.30;148512.72;1700049;82;21144;-61
2021/12/18 09:31:20;;;;;;;12.68;3.33;;;;;;;3.39;80.98;148516.61;1713690;82;21129;-62
2021/12/18 09:33:47;;;;;;;7.05;2.22;;;;;;;3.37;81.40;148511.45;1703271;81;21075;-61
2021/12/18 09:36:14;;;;;;;5.90;1.67;;;;;;;3.34;80.34;148504.97;1702879;81;21292;-60
2021/12/18 09:38:41;;;;;;;7.42;2.20;;;;;;;3.28;79.94;148489.50;1727272;80;21141;-60
2021/12/18 09:41:08;;;;;;;8.83;2.80;;;;;;;3.24;80.40;148479.19;1730067;80;21827;-59
2021/12/18 09:43:35;;;;;;;17.52;3.25;;;;;;;3.23;81.44;148476.61;1736108;80;21132;-62
2021/12/18 09:46:12;;;;;;;8.33;2.30;;;;;;;3.28;81.65;148489.50;1730372;80;21548;-60
2021/12/18 09:48:40;;;;;;;8.13;2.67;;;;;;;3.27;80.94;148486.94;1736481;80;21113;-60
2021/12/18 09:51:12;;;;;;;10.95;2.62;;;;;;;3.25;81.43;148481.77;1730077;80;21330;-59
2021/12/18 09:53:39;;;;;;;12.85;3.10;;;;;;;3.26;81.89;148484.34;1708309;80;21112;-59
2021/12/18 09:56:06;;;;;;;3.95;1.75;;;;;;;3.31;82.08;148497.25;1733922;80;21570;-60
2021/12/18 09:58:33;;;;;;;5.90;2.40;;;;;;;3.35;81.26;148507.56;1731912;80;21138;-60
2021/12/18 10:01:00;;;;;;;5.65;2.10;;;;;;;3.37;81.35;148512.72;1730609;80;21139;-61
2021/12/18 10:03:50;;;;;;;3.87;1.75;;;;;;;3.41;80.72;148523.03;1742486;80;21069;-62
2021/12/18 10:06:40;;;;;;;7.12;2.27;;;;;;;3.39;80.31;148517.88;1719373;81;21137;-62
2021/12/18 10:09:12;;;;;;;4.87;2.12;;;;;;;3.39;80.45;148516.61;1733980;80;20993;-60
2021/12/18 10:12:03;;;;;;;4.22;1.42;;;;;;;3.38;80.44;148514.03;1747113;80;21821;-60
2021/12/18 10:14:51;;;;;;;9.43;2.12;;;;;;;3.36;79.66;148510.14;1738858;79;21089;-60
2021/12/18 10:17:31;;;;;;;6.37;1.87;;;;;;;3.37;80.17;148512.72;1730957;80;21877;-60
2021/12/18 10:20:15;;;;;;;4.28;1.90;;;;;;;3.40;80.28;148520.45;1720205;81;21080;-61
2021/12/18 10:22:52;;;;;;;6.10;1.90;;;;;;;3.41;80.32;148523.03;1724880;80;21142;-61
2021/12/18 10:25:26;;;;;;;4.37;1.62;;;;;;;3.35;79.03;148506.30;1722679;80;21171;-62
2021/12/18 10:28:08;;;;;;;5.05;1.92;;;;;;;3.29;79.59;148492.09;1704571;80;21234;-62
2021/12/18 10:30:31;;;;;;;8.53;2.45;;;;;;;3.28;80.22;148489.50;1724711;80;21076;-61
2021/12/18 10:33:09;;;;;;;3.80;1.65;;;;;;;3.29;80.10;148492.09;1725959;80;21069;-61
2021/12/18 10:35:52;;;;;;;5.92;1.60;;;;;;;3.29;79.94;148492.09;1705118;81;21200;-60
2021/12/18 10:38:50;;;;;;;3.22;1.20;;;;;;;3.30;79.77;148494.67;1684510;81;22588;-61
2021/12/18 10:41:29;;;;;;;2.50;1.40;;;;;;;3.26;78.79;148484.34;1683393;82;22364;-61
2021/12/18 10:44:11;;;;;;;6.75;1.75;;;;;;;3.23;80.41;148476.61;1677301;83;21072;-60
2021/12/18 10:46:42;;;;;;;4.72;1.87;;;;;;;3.23;81.32;148476.61;1670721;83;21138;-59
2021/12/18 10:49:13;;;;;;;5.33;2.17;;;;;;;3.27;82.16;148486.94;1685729;82;21169;-62
2021/12/18 10:51:40;;;;;;;6.58;1.70;;;;;;;3.28;82.87;148489.50;1696414;81;21172;-60
2021/12/18 10:54:15;;;;;;;13.03;3.27;;;;;;;3.23;83.71;148476.61;1678181;82;21126;-62
2021/12/18 10:56:44;;;;;;;6.60;2.15;;;;;;;3.21;84.50;148471.47;1706236;81;21149;-60
2021/12/18 10:59:23;;;;;;;2.62;1.65;;;;;;;3.22;85.21;148474.03;1738855;80;21050;-59
2021/12/18 11:01:52;;;;;;;6.90;1.90;;;;;;;3.20;85.71;148470.14;1741818;79;21551;-60
2021/12/18 11:04:30;;;;;;;9.53;2.50;;;;;;;3.15;86.27;148457.25;1725049;80;21181;-62
2021/12/18 11:06:57;;;;;;;10.50;2.50;;;;;;;3.12;86.84;148449.52;1742446;80;21014;-62
2021/12/18 11:09:33;;;;;;;9.98;2.50;;;;;;;3.09;86.97;148443.05;1718972;80;21389;-60
2021/12/18 11:14:39;;;;;;;10.60;2.33;;;;;;;3.09;86.90;148443.05;1730038;80;21077;-61
2021/12/18 11:17:10;;;;;;;;;;;;;;;3.10;87.00;148445.62;1740538;79;21748;-60
2021/12/18 11:19:37;;;;;;;9.33;2.30;;;;;;;3.11;86.37;148448.20;1744560;80;20319;-60
2021/12/18 11:22:15;;;;;;;3.90;1.92;;;;;;;3.11;86.48;148446.94;1743812;80;21450;-60
2021/12/18 11:25:03;;;;;;;8.15;2.80;;;;;;;3.06;86.29;148435.31;1727841;79;21069;-59
2021/12/18 11:27:33;;;;;;;3.42;1.80;;;;;;;3.00;86.62;148419.84;1747891;79;21516;-60
2021/12/18 11:30:07;;;;;;;5.90;1.67;;;;;;;2.91;85.59;148397.91;1742237;80;21625;-59
2021/12/18 11:32:40;;;;;;;5.17;1.85;;;;;;;2.82;85.23;148375.97;1732057;80;21053;-61
2021/12/18 11:35:20;;;;;;;12.23;2.35;;;;;;;2.76;85.26;148359.19;1702217;81;21500;-62
2021/12/18 11:37:54;;;;;;;6.85;1.87;;;;;;;2.74;86.05;148355.31;1724277;80;21101;-62
2021/12/18 11:40:34;;;;;;;7.22;1.90;;;;;;;2.74;85.15;148355.31;1722317;80;21087;-60
2021/12/18 11:43:05;;;;;;;3.27;1.57;;;;;;;2.74;84.64;148355.31;1714338;81;21898;-63
2021/12/18 11:45:36;;;;;;;4.20;1.82;;;;;;;2.74;83.55;148355.31;1699100;81;21111;-64
2021/12/18 11:48:04;;;;;;;10.78;2.35;;;;;;;2.76;83.46;148360.45;1676776;83;21124;-60
2021/12/18 11:50:35;;;;;;;5.22;1.95;;;;;;;2.77;82.17;148361.77;1726990;80;21058;-62
2021/12/18 11:53:14;;;;;;;3.90;1.40;;;;;;;2.75;80.88;148357.88;1682526;82;21061;-62
2021/12/18 11:55:55;;;;;;;4.17;1.30;;;;;;;2.69;83.06;148343.73;1678994;82;21806;-62
2021/12/18 11:58:26;;;;;;;2.92;1.40;;;;;;;2.50;86.85;148295.97;1687362;83;21136;-61
2021/12/18 12:01:04;;;;;;;2.87;1.70;;;;;;;2.23;90.63;148228.94;1728418;80;21084;-62
2021/12/18 12:03:48;;;;;;;15.38;3.30;;;;;;;2.03;92.43;148177.36;1728990;80;21072;-62
2021/12/18 12:06:34;;;;;;;4.78;2.10;;;;;;;1.90;93.23;148146.45;1737925;80;21546;-62
2021/12/18 12:09:38;;;;;;;8.13;2.22;;;;;;;1.87;94.44;148138.67;1713658;80;21116;-61
2021/12/18 12:12:09;;;;;;;7.00;2.37;;;;;;;1.88;94.74;148141.30;1729550;80;20992;-62
2021/12/18 12:14:39;;;;;;;6.92;2.02;;;;;;;1.94;94.77;148156.75;1733751;80;21041;-61
2021/12/18 12:17:29;;;;;;;8.28;2.10;;;;;;;2.02;94.51;148174.78;1717855;80;21077;-62
2021/12/18 12:20:18;;;;;;;17.48;3.72;;;;;;;2.07;93.83;148187.67;1740584;79;21469;-61
2021/12/18 12:22:52;;;;;;;8.73;2.02;;;;;;;2.15;92.44;148208.33;1734935;79;20960;-61
2021/12/18 12:25:36;;;;;;;11.43;3.45;;;;;;;2.25;90.61;148232.83;1691589;82;21099;-62
2021/12/18 12:28:08;;;;;;;3.67;1.87;;;;;;;2.35;90.24;148257.33;1713601;81;21150;-61
2021/12/18 12:30:49;;;;;;;4.92;2.40;;;;;;;2.44;89.12;148280.52;1702958;81;21060;-62